Time;durP1;ratioP1;P1;durP2;ratioP2;P2;SDS_P1;SDS_P2;PMS_P1;PMS_P2;Temp;Humidity;BMP_temperature;BMP_pressure;BME280_temperature;BME280_humidity;BME280_pressure;Samples;Min_cycle;Max_cycle;Signal;HPM_P1;HPM_P2
2022/03/24 05:22:38;;;;;;;32.38;16.52;;;;;;;0.81;91.03;101462.19;5129940;27;20157;-73
2022/03/24 05:25:05;;;;;;;29.05;15.02;;;;;;;0.69;91.73;101450.56;5130327;28;20040;-73
2022/03/24 05:27:31;;;;;;;35.40;17.30;;;;;;;0.72;91.07;101454.81;5130101;28;20037;-73
2022/03/24 05:29:57;;;;;;;30.73;16.90;;;;;;;0.73;91.46;101454.72;5130210;22;20093;-69
2022/03/24 05:32:23;;;;;;;30.45;15.95;;;;;;;0.78;92.09;101463.22;5108692;28;20043;-70
2022/03/24 05:34:49;;;;;;;34.13;16.15;;;;;;;0.76;91.60;101462.41;5108984;28;20038;-70
2022/03/24 05:37:15;;;;;;;30.17;14.63;;;;;;;0.90;90.11;101463.47;5109038;28;20049;-70
2022/03/24 05:39:42;;;;;;;36.40;17.13;;;;;;;0.89;91.48;101467.03;5108894;28;20073;-70
2022/03/24 05:42:08;;;;;;;29.40;14.65;;;;;;;0.85;90.35;101466.34;5108680;28;20024;-70
2022/03/24 05:44:35;;;;;;;31.58;16.02;;;;;;;0.86;90.90;101470.66;5108900;28;20101;-70
2022/03/24 05:47:02;;;;;;;30.17;15.95;;;;;;;0.92;90.74;101478.22;5108858;28;20472;-70
2022/03/24 05:49:28;;;;;;;27.90;16.07;;;;;;;0.88;90.96;101466.19;5108617;28;20040;-70
2022/03/24 05:52:12;;;;;;;25.13;14.70;;;;;;;0.88;91.98;101467.97;5107210;28;20462;-70
2022/03/24 05:54:38;;;;;;;29.40;15.02;;;;;;;0.86;92.80;101465.41;5108484;28;20044;-70
2022/03/24 05:57:04;;;;;;;30.58;15.52;;;;;;;0.95;92.13;101470.16;5107313;28;20128;-70
2022/03/24 05:59:30;;;;;;;28.98;15.02;;;;;;;0.98;91.67;101463.94;5107785;28;20032;-70
2022/03/24 06:01:56;;;;;;;26.08;14.93;;;;;;;1.05;91.77;101468.75;5107611;28;20488;-69
2022/03/24 06:04:24;;;;;;;33.60;16.85;;;;;;;1.16;91.84;101470.78;5108147;28;20399;-68
2022/03/24 06:06:56;;;;;;;26.73;15.43;;;;;;;1.26;91.09;101469.38;5108370;28;20115;-68
2022/03/24 06:09:22;;;;;;;26.75;14.73;;;;;;;1.36;91.32;101469.69;5108217;28;20085;-68
2022/03/24 06:11:48;;;;;;;28.55;15.15;;;;;;;1.50;90.36;101474.19;5107783;28;20161;-68
2022/03/24 06:14:14;;;;;;;28.45;14.98;;;;;;;1.58;89.74;101470.22;5106579;28;20114;-68
2022/03/24 06:16:41;;;;;;;27.05;14.23;;;;;;;1.74;89.71;101478.06;5108115;28;20039;-69
2022/03/24 06:19:07;;;;;;;27.38;14.65;;;;;;;1.77;90.35;101477.91;5108081;28;20065;-69
2022/03/24 06:21:33;;;;;;;25.45;13.35;;;;;;;2.04;89.95;101482.53;5108159;28;20385;-68
2022/03/24 06:23:59;;;;;;;24.02;14.30;;;;;;;2.20;88.85;101483.31;5106826;28;20040;-69
2022/03/24 06:26:24;;;;;;;24.45;13.82;;;;;;;2.42;87.66;101486.38;5108042;28;20040;-69
2022/03/24 06:28:52;;;;;;;26.27;14.68;;;;;;;2.65;86.87;101487.63;5108039;28;20036;-69
2022/03/24 06:31:18;;;;;;;;;;;;;;;2.77;86.81;101479.94;5108573;28;20036;-69
2022/03/24 06:33:44;;;;;;;25.13;13.52;;;;;;;3.01;87.23;101488.97;5094456;28;19912;-69
2022/03/24 06:36:10;;;;;;;25.58;13.70;;;;;;;3.23;86.19;101477.94;5094422;28;20032;-69
2022/03/24 06:38:37;;;;;;;30.85;15.80;;;;;;;3.46;84.28;101487.06;5094105;28;20036;-69
2022/03/24 06:41:05;;;;;;;25.67;13.95;;;;;;;3.69;84.39;101486.41;5094162;28;20028;-69
2022/03/24 06:43:31;;;;;;;26.60;16.05;;;;;;;3.84;82.61;101481.94;5093882;28;20060;-69
2022/03/24 06:45:57;;;;;;;28.02;14.38;;;;;;;4.14;81.78;101486.16;5093998;28;20115;-68
2022/03/24 06:48:23;;;;;;;27.30;13.95;;;;;;;4.35;80.85;101482.06;5094131;28;20061;-68
2022/03/24 06:50:49;;;;;;;24.05;15.60;;;;;;;4.57;78.55;101484.97;5094113;28;20126;-69
2022/03/24 06:53:15;;;;;;;30.50;14.68;;;;;;;4.81;77.15;101479.78;5093903;28;20036;-69
2022/03/24 06:55:41;;;;;;;26.52;16.05;;;;;;;4.89;77.25;101488.03;5092422;28;20052;-69
2022/03/24 06:58:07;;;;;;;27.33;14.45;;;;;;;4.85;75.13;101478.63;5093848;28;20036;-69
2022/03/24 07:00:33;;;;;;;25.05;15.02;;;;;;;4.98;72.50;101483.91;5094114;28;20119;-68
2022/03/24 07:02:59;;;;;;;23.00;13.90;;;;;;;5.11;71.16;101476.78;5093598;28;20504;-69
2022/03/24 07:05:24;;;;;;;23.98;13.77;;;;;;;5.25;70.46;101472.34;5092480;28;20036;-69
2022/03/24 07:07:50;;;;;;;25.15;14.55;;;;;;;5.24;70.47;101478.56;5093809;28;20063;-69
2022/03/24 07:10:17;;;;;;;24.60;13.18;;;;;;;5.30;69.13;101472.84;5093649;28;20109;-69
2022/03/24 07:12:43;;;;;;;27.27;14.90;;;;;;;5.39;69.95;101480.13;5093339;28;20412;-69
2022/03/24 07:15:10;;;;;;;22.42;13.02;;;;;;;5.58;68.55;101490.22;5093604;28;20482;-69
2022/03/24 07:17:36;;;;;;;21.02;13.02;;;;;;;5.69;68.94;101485.84;5093641;28;20579;-69
2022/03/24 07:20:06;;;;;;;23.50;13.10;;;;;;;5.78;68.24;101480.81;5093623;28;20046;-69
2022/03/24 07:22:36;;;;;;;25.33;13.60;;;;;;;5.91;67.19;101486.94;5093085;28;20059;-68
2022/03/24 07:25:03;;;;;;;23.92;13.10;;;;;;;6.15;68.02;101481.63;5093354;28;20039;-67
2022/03/24 07:27:29;;;;;;;26.35;13.63;;;;;;;6.28;66.09;101473.63;5093603;28;20406;-68
2022/03/24 07:29:54;;;;;;;23.30;12.93;;;;;;;6.50;65.22;101493.03;5093300;28;20107;-69
2022/03/24 07:32:20;;;;;;;21.80;12.85;;;;;;;6.52;66.00;101472.63;5093401;28;20044;-69
2022/03/24 07:34:46;;;;;;;20.85;13.15;;;;;;;6.83;65.46;101482.63;5093212;28;20078;-69
2022/03/24 07:37:12;;;;;;;21.73;12.63;;;;;;;6.95;65.12;101484.31;5093606;28;20067;-69
2022/03/24 07:39:38;;;;;;;23.02;13.05;;;;;;;7.16;64.77;101482.63;5094500;28;20401;-69
2022/03/24 07:42:04;;;;;;;23.85;13.23;;;;;;;7.22;62.65;101483.97;5094855;28;20031;-69
2022/03/24 07:44:30;;;;;;;19.02;11.70;;;;;;;7.53;62.28;101485.84;5092401;28;20039;-69
2022/03/24 07:46:56;;;;;;;23.13;12.57;;;;;;;7.93;61.51;101484.41;5092126;28;20044;-69
2022/03/24 07:49:22;;;;;;;20.58;12.60;;;;;;;8.16;60.18;101478.91;5094130;28;20111;-69
2022/03/24 07:51:49;;;;;;;21.15;11.80;;;;;;;8.22;58.52;101477.56;5094161;28;20036;-69
2022/03/24 07:54:14;;;;;;;23.77;12.02;;;;;;;8.48;56.43;101477.22;5094917;28;20044;-70
2022/03/24 07:56:41;;;;;;;19.23;11.43;;;;;;;8.90;56.32;101475.34;5093553;28;20093;-69
2022/03/24 07:59:06;;;;;;;19.25;11.98;;;;;;;8.73;55.41;101475.94;5093005;28;20043;-70
2022/03/24 08:01:36;;;;;;;21.42;12.00;;;;;;;8.83;55.00;101477.69;5093256;28;20036;-71
2022/03/24 08:04:05;;;;;;;20.10;11.90;;;;;;;8.91;54.33;101480.53;5093145;28;20047;-70
2022/03/24 08:06:32;;;;;;;18.95;10.95;;;;;;;9.23;54.50;101480.38;5092975;28;20028;-70
2022/03/24 08:08:58;;;;;;;19.38;11.55;;;;;;;9.56;53.14;101485.50;5092784;28;20040;-70
2022/03/24 08:11:27;;;;;;;18.17;10.63;;;;;;;9.78;52.74;101480.81;5092674;28;20040;-70
2022/03/24 08:13:55;;;;;;;18.38;11.18;;;;;;;10.16;53.02;101470.28;5092271;28;20063;-70
2022/03/24 08:16:25;;;;;;;20.80;11.43;;;;;;;10.08;52.17;101479.00;5092641;28;20046;-70
2022/03/24 08:18:51;;;;;;;21.73;12.25;;;;;;;9.88;51.84;101469.31;5090995;28;20040;-70
2022/03/24 08:21:17;;;;;;;17.60;11.30;;;;;;;10.25;51.89;101474.81;5092291;28;20073;-70
2022/03/24 08:23:43;;;;;;;18.35;11.82;;;;;;;10.60;51.44;101461.72;5090955;28;20484;-70
2022/03/24 08:26:09;;;;;;;18.05;10.60;;;;;;;10.88;49.62;101470.59;5091120;28;20046;-70
2022/03/24 08:28:35;;;;;;;18.33;11.25;;;;;;;11.21;50.55;101468.38;5090948;28;20341;-70
2022/03/24 08:31:01;;;;;;;16.45;10.80;;;;;;;11.45;47.81;101467.00;5092147;28;20027;-70
2022/03/24 08:33:28;;;;;;;18.15;10.65;;;;;;;11.68;49.26;101465.59;5091969;28;20048;-70
2022/03/24 08:35:53;;;;;;;19.13;10.75;;;;;;;12.01;49.04;101472.13;5091720;28;20043;-70
2022/03/24 08:38:19;;;;;;;17.23;11.32;;;;;;;12.08;47.52;101470.50;5091845;28;20036;-69
2022/03/24 08:40:45;;;;;;;17.65;10.75;;;;;;;11.87;45.62;101472.66;5091631;28;20036;-69
2022/03/24 08:43:10;;;;;;;18.23;10.98;;;;;;;11.95;48.01;101472.72;5090143;28;20028;-71
2022/03/24 08:45:37;;;;;;;19.80;11.32;;;;;;;12.28;45.95;101468.50;5091250;28;20039;-70
2022/03/24 08:48:03;;;;;;;19.33;11.85;;;;;;;12.41;46.85;101476.97;5092796;28;20480;-69
2022/03/24 08:50:30;;;;;;;21.25;11.88;;;;;;;12.85;42.95;101478.78;5090997;28;20073;-70
2022/03/24 08:52:56;;;;;;;19.83;12.02;;;;;;;13.02;42.30;101476.00;5091203;28;20040;-70
2022/03/24 08:55:22;;;;;;;18.33;11.85;;;;;;;13.15;44.64;101478.25;5091355;28;20065;-70
2022/03/24 08:57:48;;;;;;;19.40;11.80;;;;;;;13.43;41.09;101470.03;5091860;28;20031;-71
2022/03/24 09:00:17;;;;;;;20.30;12.68;;;;;;;13.24;40.63;101474.66;5091904;28;20389;-70
2022/03/24 09:02:45;;;;;;;25.95;13.60;;;;;;;13.32;41.34;101475.69;5091612;28;20404;-69
2022/03/24 09:05:11;;;;;;;23.48;12.93;;;;;;;13.63;39.21;101481.28;5091821;28;20034;-69
2022/03/24 09:07:37;;;;;;;19.77;12.23;;;;;;;14.03;37.95;101488.59;5091843;28;20032;-69
2022/03/24 09:10:09;;;;;;;20.15;12.77;;;;;;;14.34;37.46;101488.75;5091848;28;20118;-69
2022/03/24 09:12:38;;;;;;;18.60;11.88;;;;;;;14.47;39.69;101482.91;5091325;28;20040;-70
2022/03/24 09:15:07;;;;;;;24.25;13.27;;;;;;;14.64;39.69;101490.78;5091662;28;20052;-69
2022/03/24 09:17:34;;;;;;;23.98;12.80;;;;;;;15.04;38.17;101480.97;5091616;28;20089;-69
2022/03/24 09:20:00;;;;;;;20.67;13.10;;;;;;;15.00;38.09;101479.66;5090845;28;20434;-69
2022/03/24 09:22:26;;;;;;;21.48;12.30;;;;;;;14.94;35.53;101474.97;5089774;28;20181;-69
2022/03/24 09:24:52;;;;;;;22.90;13.30;;;;;;;15.15;38.42;101475.25;5074039;28;20457;-69
2022/03/24 09:27:18;;;;;;;23.45;13.02;;;;;;;15.46;34.73;101469.91;5073875;28;20029;-69
2022/03/24 09:29:43;;;;;;;19.63;12.15;;;;;;;15.63;33.79;101475.22;5091503;28;20040;-70
2022/03/24 09:32:12;;;;;;;23.73;13.20;;;;;;;15.77;32.88;101481.66;5090433;28;20518;-70
2022/03/24 09:34:41;;;;;;;20.17;12.60;;;;;;;15.80;33.37;101476.78;5091237;28;20036;-69
2022/03/24 09:37:08;;;;;;;23.00;12.93;;;;;;;15.99;32.72;101470.97;5091433;28;20036;-69
2022/03/24 09:39:34;;;;;;;19.38;12.82;;;;;;;16.29;32.37;101471.03;5091296;28;20092;-70
2022/03/24 09:42:02;;;;;;;21.48;12.25;;;;;;;16.86;31.57;101473.22;5091205;28;20082;-69
2022/03/24 09:44:28;;;;;;;;;;;;;;;16.98;31.11;101468.22;5091758;28;20039;-70
2022/03/24 09:46:54;;;;;;;19.77;12.68;;;;;;;17.22;31.47;101467.09;5091184;28;19912;-69
2022/03/24 09:49:19;;;;;;;19.50;12.95;;;;;;;17.57;30.58;101466.28;5091088;28;20055;-69
2022/03/24 09:51:45;;;;;;;16.70;11.77;;;;;;;17.71;30.75;101469.13;5090876;28;20036;-70
2022/03/24 09:54:11;;;;;;;17.92;12.20;;;;;;;17.92;30.99;101473.72;5091333;28;20123;-69
2022/03/24 09:56:40;;;;;;;18.30;12.23;;;;;;;18.45;28.89;101466.94;5091317;28;20040;-69
2022/03/24 09:59:09;;;;;;;18.50;12.32;;;;;;;18.54;29.23;101468.50;5091208;28;20032;-69
2022/03/24 10:01:36;;;;;;;18.88;12.77;;;;;;;19.12;28.08;101461.00;5090915;28;20459;-69
2022/03/24 10:04:11;;;;;;;19.05;12.02;;;;;;;19.34;27.05;101463.59;5090964;28;20040;-70
2022/03/24 10:06:39;;;;;;;17.08;11.30;;;;;;;19.52;29.88;101462.00;5090883;28;20495;-69
2022/03/24 10:09:06;;;;;;;17.27;11.77;;;;;;;19.42;29.46;101460.69;5094092;28;20028;-70
2022/03/24 10:11:35;;;;;;;16.35;12.50;;;;;;;20.33;26.43;101458.41;5094484;28;20043;-70
2022/03/24 10:14:02;;;;;;;17.05;11.25;;;;;;;20.64;26.40;101455.09;5094486;28;20102;-70
2022/03/24 10:16:34;;;;;;;15.48;10.85;;;;;;;20.32;25.02;101454.88;5094650;28;20136;-70
2022/03/24 10:19:05;;;;;;;16.40;12.15;;;;;;;20.25;25.39;101454.03;5094210;28;20114;-70
2022/03/24 10:21:32;;;;;;;18.23;12.15;;;;;;;21.01;25.52;101447.31;5093249;28;20089;-70
2022/03/24 10:24:05;;;;;;;15.18;10.93;;;;;;;20.70;24.33;101454.25;5094427;28;20032;-70
2022/03/24 10:26:49;;;;;;;14.18;11.25;;;;;;;21.34;24.76;101448.06;5094859;28;20063;-71
2022/03/24 10:29:18;;;;;;;18.27;11.68;;;;;;;21.97;24.16;101449.97;5094333;28;20534;-69
2022/03/24 10:31:44;;;;;;;15.63;11.48;;;;;;;21.49;24.35;101442.34;5094104;28;20056;-71
2022/03/24 10:34:11;;;;;;;16.42;11.98;;;;;;;22.17;24.43;101447.16;5094112;28;20063;-70
2022/03/24 10:36:41;;;;;;;16.45;12.43;;;;;;;22.00;26.79;101443.28;5093202;28;20028;-71
2022/03/24 10:39:08;;;;;;;13.43;11.20;;;;;;;21.76;26.37;101429.47;5094393;28;20070;-70
2022/03/24 10:41:36;;;;;;;16.15;11.77;;;;;;;21.85;24.17;101443.63;5094110;28;20032;-70
2022/03/24 10:44:11;;;;;;;19.33;11.55;;;;;;;22.54;23.66;101442.66;5094046;28;20032;-70
2022/03/24 10:46:39;;;;;;;15.98;12.18;;;;;;;22.46;23.27;101441.06;5094327;28;20414;-70
2022/03/24 10:49:26;;;;;;;18.52;12.15;;;;;;;22.31;23.45;101440.56;5075988;28;20412;-69
2022/03/24 10:51:53;;;;;;;15.88;11.32;;;;;;;23.14;23.32;101434.72;5093704;28;20024;-68
2022/03/24 10:54:29;;;;;;;16.73;11.98;;;;;;;22.06;26.22;101437.81;5093906;28;20032;-68
2022/03/24 10:57:03;;;;;;;19.80;13.43;;;;;;;23.05;22.00;101435.25;5093993;28;20040;-69
2022/03/24 10:59:34;;;;;;;14.75;12.18;;;;;;;23.72;22.39;101423.28;5090690;28;20089;-69
2022/03/24 11:02:01;;;;;;;14.75;11.77;;;;;;;23.84;22.97;101426.06;5087999;28;20509;-68
2022/03/24 11:04:26;;;;;;;17.83;12.00;;;;;;;23.58;21.43;101429.97;5093359;28;20047;-69
2022/03/24 11:06:53;;;;;;;16.15;11.48;;;;;;;23.55;21.33;101425.81;5093503;28;20047;-68
2022/03/24 11:09:28;;;;;;;15.63;11.93;;;;;;;24.67;19.51;101425.09;5093047;28;20051;-69
2022/03/24 11:12:26;;;;;;;14.88;11.40;;;;;;;23.72;21.16;101420.56;5074704;28;20065;-69
2022/03/24 11:14:54;;;;;;;14.15;10.93;;;;;;;24.74;20.35;101417.63;5093425;28;20028;-69
2022/03/24 11:17:24;;;;;;;14.35;10.70;;;;;;;24.92;21.03;101422.09;5093831;28;20488;-69
2022/03/24 11:20:06;;;;;;;15.18;11.52;;;;;;;24.09;20.71;101415.81;5092810;28;20554;-68
2022/03/24 11:22:40;;;;;;;15.85;12.40;;;;;;;23.45;21.03;101417.38;5092654;28;20545;-68
2022/03/24 11:25:06;;;;;;;17.38;11.75;;;;;;;24.21;21.72;101406.84;5093029;28;20111;-68
2022/03/24 11:27:32;;;;;;;16.00;12.20;;;;;;;24.99;20.28;101420.06;5093237;28;20120;-68
2022/03/24 11:29:59;;;;;;;15.75;12.07;;;;;;;25.50;19.19;101404.75;5092589;28;20090;-68
2022/03/24 11:32:26;;;;;;;15.63;11.60;;;;;;;25.75;18.47;101409.03;5091463;28;20461;-68
2022/03/24 11:34:54;;;;;;;13.38;11.13;;;;;;;26.02;18.38;101407.34;5093104;28;20032;-68
2022/03/24 11:37:20;;;;;;;16.00;11.13;;;;;;;25.81;18.58;101403.41;5092699;28;20048;-70
2022/03/24 11:40:11;;;;;;;13.07;11.40;;;;;;;25.39;19.31;101403.72;5092816;28;20081;-68
2022/03/24 11:42:44;;;;;;;15.10;11.10;;;;;;;25.98;18.53;101400.72;5083258;28;20062;-68
2022/03/24 11:45:27;;;;;;;15.38;12.80;;;;;;;26.47;16.71;101395.47;5092593;28;20036;-68
2022/03/24 11:48:05;;;;;;;14.70;11.65;;;;;;;26.48;17.18;101386.22;5093033;28;20028;-69
2022/03/24 11:50:52;;;;;;;13.90;12.18;;;;;;;25.13;19.19;101386.06;5093184;28;20493;-69
2022/03/24 11:53:30;;;;;;;15.10;12.02;;;;;;;25.73;16.98;101382.00;5092168;28;20106;-69
2022/03/24 11:55:59;;;;;;;13.68;11.93;;;;;;;25.63;17.07;101377.19;5092643;28;20036;-68
2022/03/24 11:58:26;;;;;;;14.57;11.80;;;;;;;26.29;16.75;101368.44;5092537;28;20059;-69
2022/03/24 12:00:52;;;;;;;17.00;12.60;;;;;;;26.40;16.74;101371.06;5092548;28;20510;-69
2022/03/24 12:03:43;;;;;;;15.50;12.10;;;;;;;26.46;16.59;101364.59;5093157;28;20028;-69
2022/03/24 12:06:12;;;;;;;14.35;12.05;;;;;;;26.23;17.28;101368.34;5094046;28;20082;-69
2022/03/24 12:08:47;;;;;;;16.33;11.73;;;;;;;26.84;16.09;101364.81;5094361;28;20055;-70
2022/03/24 12:11:31;;;;;;;13.77;12.15;;;;;;;26.72;15.98;101354.84;5092666;28;20031;-69
2022/03/24 12:14:20;;;;;;;12.57;11.25;;;;;;;25.79;18.61;101359.19;5092059;28;20396;-69
2022/03/24 12:16:51;;;;;;;16.15;10.98;;;;;;;26.96;17.34;101352.69;5091390;28;20579;-69
2022/03/24 12:19:38;;;;;;;17.15;12.43;;;;;;;27.03;17.50;101344.28;5092416;28;20036;-69
2022/03/24 12:22:32;;;;;;;15.80;12.20;;;;;;;27.72;15.85;101347.22;5091728;28;20040;-69
2022/03/24 12:25:00;;;;;;;14.55;12.65;;;;;;;27.10;16.62;101342.22;5092466;28;20031;-70
2022/03/24 12:27:27;;;;;;;14.30;12.80;;;;;;;26.32;18.59;101344.16;5091008;28;20031;-69
2022/03/24 12:30:11;;;;;;;15.70;13.55;;;;;;;26.95;16.50;101328.34;5091961;28;20090;-69
2022/03/24 12:32:38;;;;;;;16.55;11.50;;;;;;;27.44;16.05;101326.41;5091509;28;20406;-69
2022/03/24 12:35:05;;;;;;;13.73;11.37;;;;;;;27.18;16.04;101328.06;5091886;28;20079;-68
2022/03/24 12:37:30;;;;;;;14.35;11.68;;;;;;;28.10;15.15;101326.13;5092163;28;20361;-69
2022/03/24 12:40:11;;;;;;;12.70;11.05;;;;;;;27.62;14.92;101316.16;5091868;28;20451;-69
2022/03/24 12:42:41;;;;;;;13.65;11.63;;;;;;;28.52;14.69;101314.34;5091330;28;20068;-69
2022/03/24 12:45:07;;;;;;;14.13;10.57;;;;;;;27.24;14.37;101310.63;5091691;28;20036;-69
2022/03/24 12:47:45;;;;;;;12.48;11.02;;;;;;;26.72;15.29;101310.28;5091856;28;20032;-69
2022/03/24 12:50:16;;;;;;;13.23;11.55;;;;;;;27.39;15.06;101312.69;5091574;28;20032;-69
2022/03/24 12:52:58;;;;;;;12.98;10.93;;;;;;;26.86;13.88;101305.25;5091102;28;20042;-69
2022/03/24 12:55:31;;;;;;;12.45;10.65;;;;;;;26.47;15.50;101298.00;5091419;28;20028;-69
2022/03/24 12:57:58;;;;;;;13.48;11.45;;;;;;;25.99;16.50;101304.09;5090683;28;20043;-69
2022/03/24 13:00:27;;;;;;;15.20;10.93;;;;;;;27.22;15.65;101290.94;5091371;28;20065;-69
2022/03/24 13:02:54;;;;;;;14.68;10.98;;;;;;;27.57;14.83;101300.53;5090803;28;20078;-69
2022/03/24 13:05:24;;;;;;;14.63;11.23;;;;;;;27.53;14.20;101283.00;5091274;28;20446;-69
2022/03/24 13:07:52;;;;;;;12.70;11.40;;;;;;;27.02;16.06;101291.50;5091600;28;20332;-70
2022/03/24 13:10:22;;;;;;;14.13;10.88;;;;;;;27.75;13.41;101286.47;5091535;28;20143;-69
2022/03/24 13:12:50;;;;;;;14.38;10.10;;;;;;;27.16;13.44;101291.97;5091407;28;20556;-69
2022/03/24 13:15:27;;;;;;;11.88;10.27;;;;;;;28.11;13.48;101286.72;5091437;28;20053;-69
2022/03/24 13:17:57;;;;;;;;;;;;;;;27.62;12.62;101273.22;5091985;28;20039;-69
2022/03/24 13:20:45;;;;;;;12.38;9.57;;;;;;;28.46;12.94;101285.28;5091418;28;19916;-69
2022/03/24 13:23:12;;;;;;;11.63;10.20;;;;;;;27.59;12.88;101279.22;5089521;28;20123;-68
2022/03/24 13:25:41;;;;;;;11.48;10.35;;;;;;;27.64;13.55;101278.41;5103168;22;20068;-70
2022/03/24 13:28:07;;;;;;;11.38;10.18;;;;;;;27.97;13.03;101269.09;5071717;28;20040;-69
2022/03/24 13:30:34;;;;;;;12.60;10.30;;;;;;;27.42;13.67;101268.41;5071875;28;20090;-70
2022/03/24 13:33:03;;;;;;;12.57;11.27;;;;;;;27.26;13.73;101263.91;5070017;28;20059;-69
2022/03/24 13:35:34;;;;;;;14.02;11.15;;;;;;;27.22;13.66;101263.56;5069998;28;20048;-70
2022/03/24 13:38:03;;;;;;;14.35;10.80;;;;;;;27.67;13.95;101264.22;5071079;28;20037;-75
2022/03/24 13:40:40;;;;;;;12.10;10.93;;;;;;;25.91;15.55;101252.66;5071468;28;20086;-71
2022/03/24 13:43:07;;;;;;;12.52;10.68;;;;;;;26.82;14.35;101253.03;5072789;28;20093;-70
2022/03/24 13:45:34;;;;;;;12.88;11.13;;;;;;;26.69;14.79;101254.25;5075461;28;20040;-71
2022/03/24 13:48:28;;;;;;;14.05;12.48;;;;;;;26.34;14.80;101248.31;5075481;28;20029;-71
2022/03/24 13:51:00;;;;;;;13.60;11.93;;;;;;;26.19;14.79;101244.31;5073812;28;20036;-72
2022/03/24 13:53:28;;;;;;;13.40;10.63;;;;;;;27.10;14.80;101242.94;5075005;28;20142;-71
2022/03/24 13:56:08;;;;;;;14.52;11.38;;;;;;;26.59;14.69;101245.94;5075278;28;20028;-70
2022/03/24 13:58:35;;;;;;;15.10;11.07;;;;;;;26.38;14.62;101235.81;5075193;28;20405;-71
2022/03/24 14:01:06;;;;;;;13.45;10.35;;;;;;;26.29;15.75;101227.25;5075000;28;20024;-71
2022/03/24 14:03:37;;;;;;;15.10;11.00;;;;;;;27.24;13.60;101234.06;5075027;28;20556;-70
2022/03/24 14:06:13;;;;;;;13.60;11.55;;;;;;;27.42;13.62;101232.84;5075070;28;20037;-71
2022/03/24 14:08:54;;;;;;;12.95;11.02;;;;;;;25.56;15.56;101229.22;5074801;28;20528;-71
2022/03/24 14:11:28;;;;;;;14.07;11.93;;;;;;;25.21;16.97;101225.88;5074659;28;20054;-72
2022/03/24 14:14:14;;;;;;;14.30;12.10;;;;;;;24.38;16.01;101221.84;5074733;28;20036;-71
2022/03/24 14:16:43;;;;;;;13.25;11.68;;;;;;;23.48;17.72;101223.06;5074678;28;20048;-72
2022/03/24 14:19:14;;;;;;;14.13;12.23;;;;;;;22.80;18.88;101227.00;5073353;28;20041;-70
2022/03/24 14:21:42;;;;;;;15.55;11.73;;;;;;;23.41;17.68;101222.31;5074914;28;20098;-71
2022/03/24 14:24:08;;;;;;;15.93;11.48;;;;;;;23.51;16.96;101207.09;5074596;28;20044;-71
2022/03/24 14:26:35;;;;;;;15.98;11.23;;;;;;;23.35;17.05;101207.81;5074226;28;20496;-71
2022/03/24 14:29:00;;;;;;;13.63;11.45;;;;;;;22.38;19.43;101207.09;5074591;28;20060;-71
2022/03/24 14:31:28;;;;;;;13.65;12.00;;;;;;;21.57;22.15;101206.25;5075047;28;20086;-71
2022/03/24 14:33:56;;;;;;;17.67;12.00;;;;;;;21.49;20.94;101187.56;5074311;28;20524;-72
2022/03/24 14:36:23;;;;;;;15.68;11.43;;;;;;;21.24;20.04;101200.25;5074353;28;20028;-73
2022/03/24 14:39:05;;;;;;;14.60;11.37;;;;;;;21.43;21.46;101207.41;5073153;28;20036;-72
2022/03/24 14:41:31;;;;;;;15.27;11.40;;;;;;;21.58;19.55;101188.09;5072736;28;20325;-73
2022/03/24 14:43:57;;;;;;;17.10;11.48;;;;;;;21.18;20.88;101185.72;5072832;28;20458;-73
2022/03/24 14:46:23;;;;;;;15.60;11.32;;;;;;;21.60;19.38;101180.59;5074218;28;20028;-73
2022/03/24 14:48:49;;;;;;;19.98;13.20;;;;;;;21.76;19.81;101181.88;5074234;28;20059;-73
2022/03/24 14:51:15;;;;;;;20.30;13.27;;;;;;;21.75;18.99;101177.53;5074205;28;20044;-73
2022/03/24 14:53:41;;;;;;;15.25;11.52;;;;;;;21.36;20.25;101184.97;5073819;28;20434;-73
2022/03/24 14:56:07;;;;;;;18.35;12.50;;;;;;;20.99;21.73;101181.25;5074212;28;20111;-72
2022/03/24 14:58:34;;;;;;;17.50;10.93;;;;;;;21.06;21.20;101171.22;5074088;28;20501;-72
2022/03/24 15:01:03;;;;;;;;;;;;;;;21.13;20.48;101175.56;5056831;28;20044;-72
2022/03/24 15:03:29;;;;;;;17.35;12.48;;;;;;;21.16;20.29;101176.16;5073877;28;20360;-72
2022/03/24 15:05:55;;;;;;;14.43;11.52;;;;;;;20.62;22.65;101170.28;5073747;28;20040;-72
2022/03/24 15:08:21;;;;;;;15.55;12.07;;;;;;;21.04;20.73;101171.44;5072566;28;20037;-73
2022/03/24 15:10:47;;;;;;;15.20;12.32;;;;;;;20.93;20.74;101168.59;5073961;28;20098;-71
2022/03/24 15:13:12;;;;;;;18.77;12.77;;;;;;;20.74;20.39;101175.84;5073599;28;20086;-73
2022/03/24 15:18:22;;;;;;;17.85;12.98;;;;;;;20.54;21.64;101157.84;5074013;28;20033;-71
2022/03/24 15:20:48;;;;;;;15.88;11.30;;;;;;;20.01;23.63;101160.72;5073868;28;20020;-73
2022/03/24 15:23:14;;;;;;;16.67;12.32;;;;;;;20.33;21.65;101153.50;5073337;28;20033;-71
2022/03/24 15:25:41;;;;;;;17.95;12.32;;;;;;;20.32;21.63;101157.28;5072171;28;20041;-71
2022/03/24 15:28:07;;;;;;;18.25;12.15;;;;;;;20.29;21.51;101154.19;5074843;28;20059;-75
2022/03/24 15:30:32;;;;;;;17.38;11.48;;;;;;;20.31;22.15;101152.91;5076878;28;20044;-76
2022/03/24 15:32:58;;;;;;;19.92;12.50;;;;;;;19.85;22.31;101152.25;5075086;28;20044;-75
2022/03/24 15:35:25;;;;;;;15.10;11.38;;;;;;;20.11;22.23;101145.94;5072632;28;20036;-75
2022/03/24 15:37:50;;;;;;;18.77;11.73;;;;;;;20.14;22.78;101146.31;5075415;28;20036;-76
2022/03/24 15:40:16;;;;;;;17.63;11.80;;;;;;;20.14;21.44;101135.50;5078371;28;20485;-75
2022/03/24 15:42:43;;;;;;;15.90;12.23;;;;;;;20.06;21.37;101149.28;5076463;28;20046;-75
2022/03/24 15:45:15;;;;;;;16.48;11.88;;;;;;;20.15;21.57;101145.31;5078370;28;20108;-74
2022/03/24 15:47:41;;;;;;;20.38;11.27;;;;;;;20.21;21.34;101138.19;5077420;28;20056;-74
2022/03/24 15:50:10;;;;;;;17.80;12.00;;;;;;;20.23;20.98;101144.22;5076267;28;20048;-76
2022/03/24 15:52:36;;;;;;;16.08;11.63;;;;;;;19.95;21.91;101153.50;5078083;28;20123;-75
2022/03/24 15:55:02;;;;;;;16.52;11.20;;;;;;;20.08;21.21;101149.03;5073306;28;20233;-72
2022/03/24 15:57:28;;;;;;;15.50;12.05;;;;;;;19.96;21.71;101154.31;5072604;28;20124;-72
2022/03/24 15:59:53;;;;;;;16.83;11.75;;;;;;;19.96;21.33;101147.03;5072514;28;20063;-72
2022/03/24 16:02:19;;;;;;;15.38;12.18;;;;;;;19.83;21.25;101151.66;5072182;28;20074;-72
2022/03/24 16:04:44;;;;;;;16.52;11.68;;;;;;;19.93;21.36;101154.72;5070803;28;20401;-72
2022/03/24 16:07:10;;;;;;;16.40;11.25;;;;;;;19.87;21.21;101153.69;5072299;28;20033;-72
2022/03/24 16:09:36;;;;;;;19.77;13.35;;;;;;;19.88;21.52;101149.13;5072757;28;20435;-72
2022/03/24 16:12:02;;;;;;;16.88;11.93;;;;;;;19.60;22.15;101150.22;5072213;28;20064;-72
2022/03/24 16:14:28;;;;;;;15.38;10.70;;;;;;;19.65;23.00;101155.84;5072302;28;20083;-72
2022/03/24 16:16:53;;;;;;;17.40;12.00;;;;;;;19.53;21.74;101152.91;5072230;28;20037;-72
2022/03/24 16:19:19;;;;;;;16.42;11.82;;;;;;;19.33;21.66;101151.28;5070886;28;20505;-72
2022/03/24 16:21:44;;;;;;;16.23;11.60;;;;;;;19.39;21.30;101153.16;5071802;28;20043;-73
2022/03/24 16:24:10;;;;;;;13.63;10.82;;;;;;;19.52;21.31;101153.97;5072283;28;20455;-72
2022/03/24 16:26:36;;;;;;;15.30;11.13;;;;;;;19.52;21.77;101151.25;5072642;28;20037;-72
2022/03/24 16:29:04;;;;;;;17.08;11.27;;;;;;;19.50;21.38;101153.34;5072187;28;20085;-72
2022/03/24 16:31:29;;;;;;;12.98;10.52;;;;;;;19.51;21.29;101151.47;5071875;28;20032;-72
2022/03/24 16:33:55;;;;;;;16.13;10.90;;;;;;;19.50;21.32;101145.25;5071936;28;20380;-72
2022/03/24 16:36:21;;;;;;;14.55;11.20;;;;;;;19.43;21.77;101154.38;5071845;28;20489;-72
2022/03/24 16:38:47;;;;;;;14.98;10.63;;;;;;;19.34;21.37;101151.06;5071935;28;20037;-72
2022/03/24 16:41:13;;;;;;;16.38;11.32;;;;;;;19.21;22.37;101148.38;5071910;28;20051;-72
2022/03/24 16:43:39;;;;;;;17.55;10.80;;;;;;;19.14;22.08;101155.66;5071486;28;20048;-72